Ritchie, Illinois
Current Conditions -  °F | °C
As of 6:35 AM on Monday 22 Dec 2014 (Local Time) from KJOT Reporting Station
Haze Haze  
Wind Chill: 25°   Ceiling: 8500
Heat Index: 32°   Visibility: 4mi
Dew Point: 28°   Wind: 7mph
Humidity: 86%   Direction: 130°SE
Pressure: 29.93"   Gusts: NA
Location:  41.3199°N, 88.0518°W
Report Text: KJOT 221235Z AUTO 13006KT 4SM BR SCT043 OVC085 00/M02 A2993 RMK AO2 T10021023
Loading
Personal Weather Stations






























Interactive Weather Map New forecast layout! Learn more

10-Day Weather Forecast

Advertisements
Track Severe Weather on mobile